createdAt,value
2023-01-19T00:00:56.915Z,6.47
2023-01-19T00:03:25.087Z,5.83
2023-01-19T00:05:53.560Z,5.27
2023-01-19T00:08:21.738Z,5.40
2023-01-19T00:10:51.986Z,7.70
2023-01-19T00:13:20.142Z,7.13
2023-01-19T00:15:49.813Z,7.60
2023-01-19T00:18:18.108Z,6.90
2023-01-19T00:20:46.683Z,4.30
2023-01-19T00:23:15.453Z,7.80
2023-01-19T00:25:44.131Z,9.10
2023-01-19T00:28:13.571Z,6.20
2023-01-19T00:30:42.687Z,7.60
2023-01-19T00:33:13.798Z,6.60
2023-01-19T00:35:43.438Z,11.93
2023-01-19T00:38:12.358Z,7.23
2023-01-19T00:40:40.663Z,7.00
2023-01-19T00:43:08.876Z,8.40
2023-01-19T00:45:37.351Z,7.93
2023-01-19T00:48:06.628Z,5.93
2023-01-19T00:50:36.336Z,9.27
2023-01-19T00:53:04.673Z,6.53
2023-01-19T00:55:33.425Z,7.10
2023-01-19T00:58:02.857Z,7.80
2023-01-19T01:00:31.265Z,8.83
2023-01-19T01:02:59.876Z,7.67
2023-01-19T01:05:28.407Z,5.73
2023-01-19T01:07:57.994Z,6.83
2023-01-19T01:10:28.131Z,6.40
2023-01-19T01:12:58.088Z,7.10
2023-01-19T01:15:29.883Z,5.10
2023-01-19T01:17:58.155Z,4.13
2023-01-19T01:20:30.270Z,4.73
2023-01-19T01:23:00.168Z,3.97
2023-01-19T01:25:30.948Z,6.23
2023-01-19T01:27:59.183Z,5.60
2023-01-19T01:30:27.384Z,5.10
2023-01-19T01:32:55.816Z,3.53
2023-01-19T01:35:24.139Z,5.90
2023-01-19T01:37:52.309Z,4.17
2023-01-19T01:40:21.969Z,4.80
2023-01-19T01:42:50.170Z,3.03
2023-01-19T01:45:31.566Z,4.53
2023-01-19T01:48:04.241Z,5.87
2023-01-19T01:50:35.123Z,4.00
2023-01-19T01:53:08.234Z,5.40
2023-01-19T01:55:42.279Z,4.23
2023-01-19T01:58:12.381Z,3.70
2023-01-19T02:00:59.588Z,4.10
2023-01-19T02:03:28.883Z,6.00
2023-01-19T02:06:01.440Z,2.60
2023-01-19T02:08:51.446Z,3.93
2023-01-19T02:11:38.867Z,3.77
2023-01-19T02:14:07.560Z,5.10
2023-01-19T02:16:37.326Z,5.40
2023-01-19T02:19:08.107Z,5.87
2023-01-19T02:21:42.839Z,3.90
2023-01-19T02:24:12.509Z,4.87
2023-01-19T02:26:43.734Z,5.57
2023-01-19T02:29:14.514Z,3.80
2023-01-19T02:31:43.176Z,4.43
2023-01-19T02:34:15.326Z,4.13
2023-01-19T02:36:49.974Z,4.80
2023-01-19T02:39:23.450Z,3.10
2023-01-19T02:41:55.815Z,2.40
2023-01-19T02:44:25.096Z,3.40
2023-01-19T02:46:55.358Z,3.27
2023-01-19T02:49:23.620Z,6.43
2023-01-19T02:51:51.766Z,5.13
2023-01-19T02:54:37.300Z,3.57
2023-01-19T02:57:15.311Z,6.80
2023-01-19T02:59:54.684Z,4.50
2023-01-19T03:02:34.598Z,3.63
2023-01-19T03:05:17.321Z,6.57
2023-01-19T03:07:53.032Z,4.63
2023-01-19T03:10:31.743Z,8.03
2023-01-19T03:13:04.755Z,5.10
2023-01-19T03:15:36.352Z,6.10
2023-01-19T03:18:09.344Z,5.63
2023-01-19T03:20:38.772Z,4.60
2023-01-19T03:23:11.100Z,7.13
2023-01-19T03:25:43.605Z,4.03
2023-01-19T03:28:15.073Z,3.87
2023-01-19T03:30:47.544Z,3.53
2023-01-19T03:33:21.383Z,4.20
2023-01-19T03:35:53.426Z,4.63
2023-01-19T03:38:26.394Z,4.67
2023-01-19T03:40:59.945Z,7.30
2023-01-19T03:43:29.392Z,3.50
2023-01-19T03:45:58.526Z,3.90
2023-01-19T03:48:27.092Z,3.90
2023-01-19T03:50:56.747Z,5.67
2023-01-19T03:53:24.930Z,4.73
2023-01-19T03:55:54.252Z,5.53
2023-01-19T03:58:23.765Z,10.80
2023-01-19T04:00:52.163Z,4.13
2023-01-19T04:03:20.368Z,3.00
2023-01-19T04:05:48.497Z,4.90
2023-01-19T04:08:16.630Z,4.60
2023-01-19T04:10:44.738Z,6.73
2023-01-19T04:13:12.958Z,3.77
2023-01-19T04:15:42.736Z,6.83
2023-01-19T04:18:10.920Z,4.10
2023-01-19T04:20:39.193Z,5.43
2023-01-19T04:23:07.380Z,5.03
2023-01-19T04:25:37.892Z,7.27
2023-01-19T04:28:06.501Z,4.17
2023-01-19T04:30:34.676Z,4.20
2023-01-19T04:33:04.430Z,4.60
2023-01-19T04:35:34.231Z,7.10
2023-01-19T04:38:02.407Z,4.73
2023-01-19T04:40:30.825Z,4.37
2023-01-19T04:42:59.236Z,8.40
2023-01-19T04:45:27.551Z,3.27
2023-01-19T04:47:55.699Z,4.50
2023-01-19T04:50:25.368Z,5.17
2023-01-19T04:52:53.579Z,4.37
2023-01-19T04:55:21.713Z,4.13
2023-01-19T04:57:49.910Z,4.90
2023-01-19T05:00:19.202Z,5.30
2023-01-19T05:02:47.610Z,3.50
2023-01-19T05:05:16.318Z,4.30
2023-01-19T05:07:46.862Z,4.83
2023-01-19T05:10:15.324Z,4.50
2023-01-19T05:12:43.444Z,4.03
2023-01-19T05:15:12.028Z,5.83
2023-01-19T05:17:40.203Z,4.50
2023-01-19T05:20:10.586Z,4.90
2023-01-19T05:22:39.410Z,7.37
2023-01-19T05:25:10.300Z,5.07
2023-01-19T05:27:38.673Z,3.17
2023-01-19T05:30:07.930Z,7.90
2023-01-19T05:32:36.142Z,4.97
2023-01-19T05:35:04.639Z,5.90
2023-01-19T05:37:32.851Z,11.10
2023-01-19T05:40:01.154Z,4.80
2023-01-19T05:42:32.688Z,3.73
2023-01-19T05:45:01.570Z,3.97
2023-01-19T05:47:31.098Z,6.40
2023-01-19T05:49:59.483Z,4.53
2023-01-19T05:52:27.704Z,5.10
2023-01-19T05:54:56.035Z,7.80
2023-01-19T05:57:24.730Z,7.33
2023-01-19T05:59:54.265Z,6.80
2023-01-19T06:02:28.495Z,10.60
2023-01-19T06:04:57.238Z,7.97
2023-01-19T06:07:28.207Z,12.80
2023-01-19T06:09:56.978Z,10.93
2023-01-19T06:12:25.450Z,8.73
2023-01-19T06:14:54.921Z,8.87
2023-01-19T06:17:23.038Z,10.20
2023-01-19T06:19:51.175Z,12.70
2023-01-19T06:22:19.479Z,15.23
2023-01-19T06:24:47.962Z,13.50
2023-01-19T06:27:16.177Z,17.43
2023-01-19T06:29:44.304Z,15.63
2023-01-19T06:32:13.837Z,15.83
2023-01-19T06:34:43.747Z,13.73
2023-01-19T06:37:12.166Z,12.07
2023-01-19T06:39:41.093Z,15.77
2023-01-19T06:42:09.546Z,17.33
2023-01-19T06:44:37.705Z,13.37
2023-01-19T06:47:15.382Z,14.10
2023-01-19T06:49:45.679Z,11.73
2023-01-19T06:52:15.939Z,15.37
2023-01-19T06:54:45.431Z,12.60
2023-01-19T06:57:14.184Z,15.63
2023-01-19T06:59:42.439Z,14.80
2023-01-19T07:02:27.465Z,18.97
2023-01-19T07:04:58.029Z,13.93
2023-01-19T07:07:26.697Z,14.77
2023-01-19T07:09:55.068Z,12.50
2023-01-19T07:12:23.421Z,15.17
2023-01-19T07:14:52.598Z,17.33
2023-01-19T07:17:21.050Z,17.93
2023-01-19T07:19:49.237Z,15.33
2023-01-19T07:22:18.730Z,22.00
2023-01-19T07:24:46.852Z,13.17
2023-01-19T07:27:16.412Z,15.40
2023-01-19T07:29:44.669Z,14.77
2023-01-19T07:32:13.573Z,19.50
2023-01-19T07:34:41.727Z,18.37
2023-01-19T07:37:09.850Z,17.50
2023-01-19T07:39:39.380Z,19.27
2023-01-19T07:42:08.278Z,17.30
2023-01-19T07:44:37.097Z,20.77
2023-01-19T07:47:07.351Z,20.40
2023-01-19T07:49:36.326Z,17.43
2023-01-19T07:52:04.523Z,18.20
2023-01-19T07:54:32.680Z,21.40
2023-01-19T07:57:02.184Z,16.40
2023-01-19T07:59:32.164Z,21.93
2023-01-19T08:02:00.580Z,20.53
2023-01-19T08:04:29.290Z,16.63
2023-01-19T08:06:57.831Z,19.37
2023-01-19T08:09:26.035Z,19.20
2023-01-19T08:11:54.286Z,19.97
2023-01-19T08:14:23.803Z,17.93
2023-01-19T08:16:52.113Z,18.87
2023-01-19T08:19:20.477Z,18.90
2023-01-19T08:21:48.652Z,17.13
2023-01-19T08:24:21.466Z,17.40
2023-01-19T08:26:50.324Z,13.90
2023-01-19T08:29:18.602Z,18.47
2023-01-19T08:31:48.437Z,19.87
2023-01-19T08:34:16.831Z,16.87
2023-01-19T08:36:45.144Z,14.90
2023-01-19T08:39:13.459Z,14.17
2023-01-19T08:41:41.586Z,16.40
2023-01-19T08:44:09.758Z,14.70
2023-01-19T08:46:38.003Z,15.67
2023-01-19T08:49:07.668Z,13.57
2023-01-19T08:51:35.925Z,13.87
2023-01-19T08:54:04.134Z,17.20
2023-01-19T08:56:32.593Z,18.40
2023-01-19T08:59:09.232Z,17.23
2023-01-19T09:01:39.009Z,17.43
2023-01-19T09:04:09.097Z,16.50
2023-01-19T09:06:37.258Z,16.53
2023-01-19T09:09:05.586Z,21.80
2023-01-19T09:11:34.927Z,16.23
2023-01-19T09:14:04.123Z,18.07
2023-01-19T09:16:32.410Z,22.40
2023-01-19T09:19:00.667Z,15.63
2023-01-19T09:21:30.184Z,19.70
2023-01-19T09:23:58.325Z,13.20
2023-01-19T09:26:27.060Z,18.47
2023-01-19T09:28:55.259Z,14.80
2023-01-19T09:31:23.750Z,19.70
2023-01-19T09:33:52.015Z,14.50
2023-01-19T09:36:20.245Z,17.43
2023-01-19T09:38:49.718Z,18.50
2023-01-19T09:41:22.210Z,27.07
2023-01-19T09:43:55.681Z,17.60
2023-01-19T09:46:28.444Z,24.73
2023-01-19T09:48:58.289Z,16.83
2023-01-19T09:51:28.369Z,16.87
2023-01-19T09:54:09.109Z,19.27
2023-01-19T09:56:37.743Z,31.97
2023-01-19T09:59:19.846Z,22.63
2023-01-19T10:02:18.160Z,26.40
2023-01-19T10:04:59.103Z,21.77
2023-01-19T10:07:37.606Z,25.83
2023-01-19T10:10:22.428Z,28.80
2023-01-19T10:13:02.406Z,23.40
2023-01-19T10:15:42.748Z,25.73
2023-01-19T10:18:17.508Z,25.30
2023-01-19T10:20:50.404Z,26.20
2023-01-19T10:23:40.681Z,24.93
2023-01-19T10:26:16.464Z,28.73
2023-01-19T10:28:46.828Z,23.40
2023-01-19T10:31:17.946Z,26.80
2023-01-19T10:33:46.546Z,25.63
2023-01-19T10:36:18.728Z,22.73
2023-01-19T10:38:47.826Z,26.23
2023-01-19T10:41:22.278Z,28.97
2023-01-19T10:43:59.606Z,31.87
2023-01-19T10:46:38.495Z,30.20
2023-01-19T10:49:07.496Z,25.13
2023-01-19T10:51:47.420Z,26.03
2023-01-19T10:54:16.096Z,26.10
2023-01-19T10:56:53.355Z,20.93
2023-01-19T10:59:33.344Z,27.23
2023-01-19T11:02:27.677Z,34.93
2023-01-19T11:04:57.508Z,21.70
2023-01-19T11:07:29.689Z,27.10
2023-01-19T11:10:21.249Z,24.53
2023-01-19T11:12:58.621Z,25.17
2023-01-19T11:15:31.226Z,25.20
2023-01-19T11:18:00.040Z,26.63
2023-01-19T11:20:35.086Z,22.23
2023-01-19T11:23:09.051Z,21.80
2023-01-19T11:25:37.741Z,25.30
2023-01-19T11:28:14.956Z,24.50
2023-01-19T11:30:55.763Z,24.57
2023-01-19T11:33:26.615Z,28.13
2023-01-19T11:36:04.434Z,30.13
2023-01-19T11:38:33.704Z,26.33
2023-01-19T11:41:06.479Z,23.20
2023-01-19T11:43:48.332Z,22.00
2023-01-19T11:46:18.601Z,20.10
2023-01-19T11:48:50.861Z,21.40
2023-01-19T11:51:22.361Z,22.83
2023-01-19T11:53:53.385Z,18.60
2023-01-19T11:56:24.890Z,22.67
2023-01-19T11:58:54.487Z,19.03
2023-01-19T12:01:25.467Z,19.30
2023-01-19T12:03:59.702Z,20.37
2023-01-19T12:06:32.020Z,18.77
2023-01-19T12:09:04.393Z,24.77
2023-01-19T12:11:36.844Z,25.57
2023-01-19T12:14:16.484Z,20.50
2023-01-19T12:16:45.550Z,22.17
2023-01-19T12:19:17.499Z,18.90
2023-01-19T12:21:48.067Z,17.13
2023-01-19T12:24:18.898Z,17.60
2023-01-19T12:26:53.405Z,23.47
2023-01-19T12:29:25.709Z,19.00
2023-01-19T12:32:17.966Z,32.43
2023-01-19T12:34:47.756Z,23.50
2023-01-19T12:37:38.081Z,24.03
2023-01-19T12:40:20.996Z,22.20
2023-01-19T12:42:56.201Z,16.80
2023-01-19T12:45:31.406Z,16.73
2023-01-19T12:48:00.205Z,24.77
2023-01-19T12:50:30.340Z,25.13
2023-01-19T12:53:02.598Z,15.10
2023-01-19T12:55:33.919Z,16.77
2023-01-19T12:58:04.275Z,14.90
2023-01-19T13:00:36.923Z,18.13
2023-01-19T13:03:21.673Z,18.60
2023-01-19T13:05:53.580Z,15.70
2023-01-19T13:08:31.217Z,19.70
2023-01-19T13:11:21.101Z,13.90
2023-01-19T13:14:26.415Z,17.63
2023-01-19T13:17:16.834Z,18.80
2023-01-19T13:20:19.531Z,13.70
2023-01-19T13:23:25.320Z,21.73
2023-01-19T13:26:04.364Z,19.80
2023-01-19T13:28:38.380Z,21.83
2023-01-19T13:31:07.321Z,16.53
2023-01-19T13:33:44.560Z,22.23
2023-01-19T13:36:22.422Z,17.30
2023-01-19T13:38:52.196Z,17.97
2023-01-19T13:41:23.326Z,13.87
2023-01-19T13:43:55.936Z,22.73
2023-01-19T13:46:26.287Z,15.23
2023-01-19T13:48:59.951Z,14.30
2023-01-19T13:51:28.353Z,11.73
2023-01-19T13:53:57.817Z,12.63
2023-01-19T13:56:28.511Z,13.30
2023-01-19T13:59:09.835Z,14.70
2023-01-19T14:01:39.777Z,14.60
2023-01-19T14:04:26.340Z,17.37
2023-01-19T14:06:55.919Z,16.93
2023-01-19T14:09:24.275Z,17.97
2023-01-19T14:12:22.359Z,18.13
2023-01-19T14:14:50.564Z,14.50
2023-01-19T14:17:30.184Z,16.40
2023-01-19T14:20:01.510Z,20.10
2023-01-19T14:22:41.521Z,18.50
2023-01-19T14:25:32.528Z,15.90
2023-01-19T14:28:29.278Z,16.07
2023-01-19T14:30:58.534Z,11.03
2023-01-19T14:33:41.321Z,11.43
2023-01-19T14:36:27.666Z,18.37
2023-01-19T14:38:58.922Z,14.60
2023-01-19T14:41:34.093Z,13.53
2023-01-19T14:44:03.399Z,14.70
2023-01-19T14:46:31.721Z,10.40
2023-01-19T14:49:05.248Z,11.90
2023-01-19T14:51:35.057Z,11.50
2023-01-19T14:54:04.809Z,10.97
2023-01-19T14:56:35.695Z,14.97
2023-01-19T14:59:11.245Z,13.67
2023-01-19T15:01:39.536Z,9.27
2023-01-19T15:04:07.911Z,9.90
2023-01-19T15:06:41.452Z,11.13
2023-01-19T15:09:11.834Z,9.57
2023-01-19T15:11:40.726Z,13.57
2023-01-19T15:14:13.145Z,10.17
2023-01-19T15:16:41.802Z,10.80
2023-01-19T15:19:12.997Z,9.10
2023-01-19T15:21:42.971Z,13.50
2023-01-19T15:24:11.492Z,10.07
2023-01-19T15:26:41.583Z,6.30
2023-01-19T15:29:24.026Z,12.70
2023-01-19T15:31:52.757Z,9.53
2023-01-19T15:34:20.947Z,9.83
2023-01-19T15:36:50.477Z,11.50
2023-01-19T15:39:18.670Z,10.13
2023-01-19T15:41:46.879Z,11.07
2023-01-19T15:44:15.044Z,9.90
2023-01-19T15:46:43.190Z,10.43
2023-01-19T15:49:11.380Z,9.93
2023-01-19T15:51:39.548Z,7.00
2023-01-19T15:54:13.430Z,9.90
2023-01-19T15:56:42.343Z,10.50
2023-01-19T15:59:10.513Z,10.37
2023-01-19T16:01:38.738Z,9.23
2023-01-19T16:04:09.456Z,11.73
2023-01-19T16:06:37.665Z,9.20
2023-01-19T16:09:06.204Z,8.30
2023-01-19T16:11:37.780Z,10.33
2023-01-19T16:14:05.960Z,6.90
2023-01-19T16:16:34.196Z,14.10
2023-01-19T16:19:02.504Z,9.20
2023-01-19T16:21:30.713Z,12.13
2023-01-19T16:23:58.916Z,13.47
2023-01-19T16:26:30.327Z,10.47
2023-01-19T16:29:01.213Z,11.20
2023-01-19T16:31:29.938Z,8.30
2023-01-19T16:33:58.198Z,13.77
2023-01-19T16:36:28.707Z,7.70
2023-01-19T16:39:00.205Z,9.87
2023-01-19T16:41:28.425Z,11.37
2023-01-19T16:43:58.441Z,9.97
2023-01-19T16:46:29.877Z,6.70
2023-01-19T16:49:01.078Z,6.23
2023-01-19T16:51:29.685Z,8.03
2023-01-19T16:53:57.985Z,5.50
2023-01-19T16:56:26.262Z,8.07
2023-01-19T16:58:55.195Z,8.43
2023-01-19T17:01:24.199Z,8.10
2023-01-19T17:03:53.993Z,6.43
2023-01-19T17:06:23.791Z,10.17
2023-01-19T17:08:53.074Z,6.13
2023-01-19T17:11:22.865Z,6.17
2023-01-19T17:13:55.117Z,6.07
2023-01-19T17:16:23.704Z,7.07
2023-01-19T17:18:53.366Z,4.40
2023-01-19T17:21:21.561Z,5.70
2023-01-19T17:23:53.426Z,6.03
2023-01-19T17:26:22.427Z,4.70
2023-01-19T17:28:50.621Z,4.27
2023-01-19T17:31:20.619Z,7.00
2023-01-19T17:33:50.522Z,5.00
2023-01-19T17:36:22.378Z,4.57
2023-01-19T17:38:51.212Z,5.63
2023-01-19T17:41:21.264Z,7.10
2023-01-19T17:43:51.174Z,5.77
2023-01-19T17:46:21.012Z,5.10
2023-01-19T17:48:53.197Z,7.77
2023-01-19T17:51:23.822Z,7.57
2023-01-19T17:53:53.044Z,4.73
2023-01-19T17:56:22.849Z,7.43
2023-01-19T17:58:51.162Z,6.23
2023-01-19T18:01:22.140Z,6.93
2023-01-19T18:03:50.781Z,4.80
2023-01-19T18:06:19.092Z,8.77
2023-01-19T18:08:49.573Z,5.60
2023-01-19T18:11:19.176Z,6.40
2023-01-19T18:13:49.056Z,5.37
2023-01-19T18:16:20.192Z,7.60
2023-01-19T18:18:49.928Z,7.30
2023-01-19T18:21:20.218Z,4.90
2023-01-19T18:23:50.856Z,4.93
2023-01-19T18:26:20.875Z,5.27
2023-01-19T18:28:49.985Z,7.13
2023-01-19T18:31:19.766Z,5.00
2023-01-19T18:33:48.930Z,5.63
2023-01-19T18:36:17.513Z,7.67
2023-01-19T18:38:46.826Z,7.40
2023-01-19T18:41:18.375Z,6.80
2023-01-19T18:43:47.597Z,4.80
2023-01-19T18:46:16.261Z,5.40
2023-01-19T18:48:44.570Z,5.60
2023-01-19T18:51:15.397Z,6.20
2023-01-19T18:53:44.311Z,4.70
2023-01-19T18:56:13.689Z,5.83
2023-01-19T18:58:43.451Z,11.03
2023-01-19T19:01:21.036Z,7.27
2023-01-19T19:03:49.326Z,4.80
2023-01-19T19:06:20.475Z,11.77
2023-01-19T19:08:49.841Z,9.30
2023-01-19T19:11:18.140Z,7.27
2023-01-19T19:13:51.872Z,13.63
2023-01-19T19:16:20.233Z,9.90
2023-01-19T19:18:50.030Z,8.50
2023-01-19T19:21:19.574Z,6.00
2023-01-19T19:23:51.411Z,7.90
2023-01-19T19:26:20.159Z,9.13
2023-01-19T19:28:49.798Z,6.43
2023-01-19T19:31:20.367Z,10.10
2023-01-19T19:33:50.673Z,9.00
2023-01-19T19:36:19.970Z,7.40
2023-01-19T19:38:48.824Z,5.67
2023-01-19T19:41:23.174Z,9.73
2023-01-19T19:43:52.708Z,6.37
2023-01-19T19:46:22.819Z,6.40
2023-01-19T19:48:51.646Z,7.90
2023-01-19T19:51:23.360Z,10.53
2023-01-19T19:53:52.922Z,7.13
2023-01-19T19:56:22.842Z,25.37
2023-01-19T19:58:54.543Z,8.40
2023-01-19T20:01:27.662Z,7.00
2023-01-19T20:03:57.028Z,7.47
2023-01-19T20:06:26.173Z,5.87
2023-01-19T20:08:57.143Z,8.00
2023-01-19T20:11:28.122Z,6.83
2023-01-19T20:13:57.727Z,6.93
2023-01-19T20:16:26.428Z,6.13
2023-01-19T20:18:55.088Z,7.50
2023-01-19T20:21:24.946Z,7.17
2023-01-19T20:23:53.977Z,8.33
2023-01-19T20:26:26.359Z,4.80
2023-01-19T20:28:55.534Z,7.30
2023-01-19T20:31:27.931Z,6.10
2023-01-19T20:33:58.672Z,8.03
2023-01-19T20:36:28.829Z,10.40
2023-01-19T20:38:57.543Z,8.30
2023-01-19T20:41:26.985Z,7.73
2023-01-19T20:43:55.190Z,6.90
2023-01-19T20:46:24.749Z,7.50
2023-01-19T20:48:54.583Z,6.87
2023-01-19T20:51:23.007Z,7.10
2023-01-19T20:53:51.517Z,4.73
2023-01-19T20:56:19.834Z,6.80
2023-01-19T20:58:48.078Z,8.03
2023-01-19T21:01:18.130Z,7.77
2023-01-19T21:03:48.505Z,8.47
2023-01-19T21:06:17.514Z,8.57
2023-01-19T21:08:46.028Z,5.07
2023-01-19T21:11:14.391Z,8.97
2023-01-19T21:13:42.607Z,10.60
2023-01-19T21:16:10.779Z,6.77
2023-01-19T21:18:39.030Z,6.90
2023-01-19T21:21:14.959Z,13.77
2023-01-19T21:23:49.947Z,18.10
2023-01-19T21:26:18.193Z,17.00
2023-01-19T21:28:46.265Z,10.90
2023-01-19T21:31:15.202Z,7.57
2023-01-19T21:33:44.015Z,10.07
2023-01-19T21:36:13.645Z,6.87
2023-01-19T21:38:41.807Z,8.20
2023-01-19T21:41:12.540Z,7.33
2023-01-19T21:43:42.793Z,7.40
2023-01-19T21:46:12.561Z,7.73
2023-01-19T21:48:40.886Z,6.20
2023-01-19T21:51:09.222Z,6.60
2023-01-19T21:53:38.928Z,9.13
2023-01-19T21:56:08.526Z,8.70
2023-01-19T21:58:36.831Z,6.83
2023-01-19T22:01:07.106Z,8.07
2023-01-19T22:03:35.348Z,8.20
2023-01-19T22:06:05.840Z,8.70
2023-01-19T22:08:34.657Z,8.53
2023-01-19T22:11:08.263Z,6.03
2023-01-19T22:13:38.457Z,6.93
2023-01-19T22:16:10.239Z,4.87
2023-01-19T22:18:38.992Z,7.33
2023-01-19T22:21:11.200Z,7.17
2023-01-19T22:23:40.609Z,5.27
2023-01-19T22:26:11.462Z,5.00
2023-01-19T22:28:39.950Z,10.00
2023-01-19T22:31:09.960Z,9.40
2023-01-19T22:33:38.252Z,7.10
2023-01-19T22:36:15.706Z,6.47
2023-01-19T22:38:45.470Z,7.20
2023-01-19T22:41:16.975Z,6.40
2023-01-19T22:43:45.321Z,8.20
2023-01-19T22:46:13.712Z,8.00
2023-01-19T22:48:41.923Z,8.70
2023-01-19T22:51:10.303Z,6.97
2023-01-19T22:53:38.644Z,10.10
2023-01-19T22:56:16.333Z,5.80
2023-01-19T22:58:45.481Z,7.47
2023-01-19T23:01:15.207Z,7.80
2023-01-19T23:03:43.838Z,7.00
2023-01-19T23:06:14.387Z,6.93
2023-01-19T23:08:43.378Z,7.10
2023-01-19T23:11:14.511Z,7.53
2023-01-19T23:13:44.397Z,5.73
2023-01-19T23:16:13.831Z,7.17
2023-01-19T23:18:42.562Z,11.80
2023-01-19T23:21:12.954Z,8.50
2023-01-19T23:23:41.746Z,7.43
2023-01-19T23:26:12.409Z,6.80
2023-01-19T23:28:41.115Z,8.50
2023-01-19T23:31:22.125Z,8.43
2023-01-19T23:33:51.314Z,8.63
2023-01-19T23:36:20.263Z,12.67
2023-01-19T23:38:50.176Z,11.03
2023-01-19T23:41:18.629Z,12.00
2023-01-19T23:43:46.980Z,12.07
2023-01-19T23:46:17.994Z,15.80
2023-01-19T23:48:46.907Z,10.30
2023-01-19T23:51:17.133Z,9.63
2023-01-19T23:53:45.603Z,10.17
2023-01-19T23:56:17.382Z,11.10
2023-01-19T23:58:46.610Z,11.57
